sensor_id;sensor_type;location;lat;lon;timestamp;temperature;humidity
37380;DHT22;23252;-33.992;18.480;2022-12-07T00:01:24;18.30;99.90
37380;DHT22;23252;-33.992;18.480;2022-12-07T00:03:53;18.30;99.90
37380;DHT22;23252;-33.992;18.480;2022-12-07T00:06:20;18.20;99.90
37380;DHT22;23252;-33.992;18.480;2022-12-07T00:08:48;18.10;99.90
37380;DHT22;23252;-33.992;18.480;2022-12-07T00:11:23;18.00;99.90
37380;DHT22;23252;-33.992;18.480;2022-12-07T00:13:58;18.00;99.90
37380;DHT22;23252;-33.992;18.480;2022-12-07T00:16:28;18.00;99.90
37380;DHT22;23252;-33.992;18.480;2022-12-07T00:18:55;18.00;99.90
37380;DHT22;23252;-33.992;18.480;2022-12-07T00:21:25;18.00;99.90
37380;DHT22;23252;-33.992;18.480;2022-12-07T00:23:54;18.00;99.90
37380;DHT22;23252;-33.992;18.480;2022-12-07T00:26:25;18.10;99.90
37380;DHT22;23252;-33.992;18.480;2022-12-07T00:28:54;18.10;99.90
37380;DHT22;23252;-33.992;18.480;2022-12-07T00:31:23;18.00;99.90
37380;DHT22;23252;-33.992;18.480;2022-12-07T00:33:50;17.90;99.90
37380;DHT22;23252;-33.992;18.480;2022-12-07T00:36:20;17.80;99.90
37380;DHT22;23252;-33.992;18.480;2022-12-07T00:38:47;17.80;99.90
37380;DHT22;23252;-33.992;18.480;2022-12-07T00:41:19;17.80;99.90
37380;DHT22;23252;-33.992;18.480;2022-12-07T00:43:47;17.70;99.90
37380;DHT22;23252;-33.992;18.480;2022-12-07T00:46:15;17.70;99.90
37380;DHT22;23252;-33.992;18.480;2022-12-07T00:48:42;17.70;99.90
37380;DHT22;23252;-33.992;18.480;2022-12-07T00:51:10;17.70;99.90
37380;DHT22;23252;-33.992;18.480;2022-12-07T00:53:38;17.60;99.90
37380;DHT22;23252;-33.992;18.480;2022-12-07T00:56:10;17.60;99.90
37380;DHT22;23252;-33.992;18.480;2022-12-07T00:58:37;17.50;99.90
37380;DHT22;23252;-33.992;18.480;2022-12-07T01:01:05;17.50;99.90
37380;DHT22;23252;-33.992;18.480;2022-12-07T01:03:33;17.50;99.90
37380;DHT22;23252;-33.992;18.480;2022-12-07T01:06:00;17.50;99.90
37380;DHT22;23252;-33.992;18.480;2022-12-07T01:08:28;17.60;99.90
37380;DHT22;23252;-33.992;18.480;2022-12-07T01:11:15;17.60;99.90
37380;DHT22;23252;-33.992;18.480;2022-12-07T01:13:42;17.60;99.90
37380;DHT22;23252;-33.992;18.480;2022-12-07T01:16:11;17.50;99.90
37380;DHT22;23252;-33.992;18.480;2022-12-07T01:18:39;17.50;99.90
37380;DHT22;23252;-33.992;18.480;2022-12-07T01:21:11;17.50;99.90
37380;DHT22;23252;-33.992;18.480;2022-12-07T01:23:38;17.50;99.90
37380;DHT22;23252;-33.992;18.480;2022-12-07T01:26:09;17.50;99.90
37380;DHT22;23252;-33.992;18.480;2022-12-07T01:28:36;17.50;99.90
37380;DHT22;23252;-33.992;18.480;2022-12-07T01:31:09;17.60;99.90
37380;DHT22;23252;-33.992;18.480;2022-12-07T01:33:38;17.60;99.90
37380;DHT22;23252;-33.992;18.480;2022-12-07T01:38:39;17.60;99.90
37380;DHT22;23252;-33.992;18.480;2022-12-07T01:41:05;17.60;99.90
37380;DHT22;23252;-33.992;18.480;2022-12-07T01:43:33;17.50;99.90
37380;DHT22;23252;-33.992;18.480;2022-12-07T01:46:01;17.50;99.90
37380;DHT22;23252;-33.992;18.480;2022-12-07T01:48:36;17.30;99.90
37380;DHT22;23252;-33.992;18.480;2022-12-07T01:51:12;17.30;99.90
37380;DHT22;23252;-33.992;18.480;2022-12-07T01:53:43;17.20;99.90
37380;DHT22;23252;-33.992;18.480;2022-12-07T01:56:16;17.20;99.90
37380;DHT22;23252;-33.992;18.480;2022-12-07T01:58:45;17.20;99.90
37380;DHT22;23252;-33.992;18.480;2022-12-07T02:01:11;17.20;99.90
37380;DHT22;23252;-33.992;18.480;2022-12-07T02:03:40;17.00;99.90
37380;DHT22;23252;-33.992;18.480;2022-12-07T02:06:08;17.00;99.90
37380;DHT22;23252;-33.992;18.480;2022-12-07T02:08:35;16.90;99.90
37380;DHT22;23252;-33.992;18.480;2022-12-07T02:11:04;17.00;99.90
37380;DHT22;23252;-33.992;18.480;2022-12-07T02:13:34;17.00;99.90
37380;DHT22;23252;-33.992;18.480;2022-12-07T02:19:07;16.90;99.90
37380;DHT22;23252;-33.992;18.480;2022-12-07T02:30:00;16.80;99.90
37380;DHT22;23252;-33.992;18.480;2022-12-07T02:35:32;16.70;99.90
37380;DHT22;23252;-33.992;18.480;2022-12-07T02:38:18;16.60;99.90
37380;DHT22;23252;-33.992;18.480;2022-12-07T02:41:00;16.60;99.90
37380;DHT22;23252;-33.992;18.480;2022-12-07T02:43:35;16.50;99.90
37380;DHT22;23252;-33.992;18.480;2022-12-07T02:46:14;16.50;99.90
37380;DHT22;23252;-33.992;18.480;2022-12-07T02:48:43;16.50;99.90
37380;DHT22;23252;-33.992;18.480;2022-12-07T02:51:10;16.50;99.90
37380;DHT22;23252;-33.992;18.480;2022-12-07T02:53:38;16.60;99.90
37380;DHT22;23252;-33.992;18.480;2022-12-07T02:56:28;16.60;99.90
37380;DHT22;23252;-33.992;18.480;2022-12-07T02:59:17;16.60;99.90
37380;DHT22;23252;-33.992;18.480;2022-12-07T03:08:11;16.60;99.90
37380;DHT22;23252;-33.992;18.480;2022-12-07T03:10:58;16.60;99.90
37380;DHT22;23252;-33.992;18.480;2022-12-07T03:16:35;16.60;99.90
37380;DHT22;23252;-33.992;18.480;2022-12-07T03:19:16;16.50;99.90
37380;DHT22;23252;-33.992;18.480;2022-12-07T03:21:56;16.50;99.90
37380;DHT22;23252;-33.992;18.480;2022-12-07T03:24:30;16.50;99.90
37380;DHT22;23252;-33.992;18.480;2022-12-07T03:27:29;16.50;99.90
37380;DHT22;23252;-33.992;18.480;2022-12-07T03:30:00;16.50;99.90
37380;DHT22;23252;-33.992;18.480;2022-12-07T03:32:39;16.50;99.90
37380;DHT22;23252;-33.992;18.480;2022-12-07T03:35:31;16.50;99.90
37380;DHT22;23252;-33.992;18.480;2022-12-07T03:38:21;16.40;99.90
37380;DHT22;23252;-33.992;18.480;2022-12-07T03:40:52;16.50;99.90
37380;DHT22;23252;-33.992;18.480;2022-12-07T03:43:21;16.40;99.90
37380;DHT22;23252;-33.992;18.480;2022-12-07T03:48:28;16.50;99.90
37380;DHT22;23252;-33.992;18.480;2022-12-07T03:54:11;16.50;99.90
37380;DHT22;23252;-33.992;18.480;2022-12-07T03:56:41;16.50;99.90
37380;DHT22;23252;-33.992;18.480;2022-12-07T03:59:09;16.60;99.90
37380;DHT22;23252;-33.992;18.480;2022-12-07T04:01:37;16.60;99.90
37380;DHT22;23252;-33.992;18.480;2022-12-07T04:04:03;16.60;99.90
37380;DHT22;23252;-33.992;18.480;2022-12-07T04:06:30;16.60;99.90
37380;DHT22;23252;-33.992;18.480;2022-12-07T04:08:56;16.70;99.90
37380;DHT22;23252;-33.992;18.480;2022-12-07T04:11:23;16.70;99.90
37380;DHT22;23252;-33.992;18.480;2022-12-07T04:13:49;16.80;99.90
37380;DHT22;23252;-33.992;18.480;2022-12-07T04:16:34;16.80;99.90
37380;DHT22;23252;-33.992;18.480;2022-12-07T04:19:01;16.90;99.90
37380;DHT22;23252;-33.992;18.480;2022-12-07T04:21:27;17.00;99.90
37380;DHT22;23252;-33.992;18.480;2022-12-07T04:23:54;17.10;99.90
37380;DHT22;23252;-33.992;18.480;2022-12-07T04:26:20;17.10;99.90
37380;DHT22;23252;-33.992;18.480;2022-12-07T04:28:47;17.20;99.90
37380;DHT22;23252;-33.992;18.480;2022-12-07T04:31:13;17.30;99.90
37380;DHT22;23252;-33.992;18.480;2022-12-07T04:33:40;17.30;99.90
37380;DHT22;23252;-33.992;18.480;2022-12-07T04:36:07;17.40;99.90
37380;DHT22;23252;-33.992;18.480;2022-12-07T04:38:33;17.50;99.90
37380;DHT22;23252;-33.992;18.480;2022-12-07T04:41:07;17.50;99.90
37380;DHT22;23252;-33.992;18.480;2022-12-07T04:43:34;17.60;99.90
37380;DHT22;23252;-33.992;18.480;2022-12-07T04:46:01;17.80;99.90
37380;DHT22;23252;-33.992;18.480;2022-12-07T04:48:28;17.80;99.90
37380;DHT22;23252;-33.992;18.480;2022-12-07T04:50:55;17.90;99.90
37380;DHT22;23252;-33.992;18.480;2022-12-07T04:53:21;18.00;99.90
37380;DHT22;23252;-33.992;18.480;2022-12-07T04:55:48;18.00;99.90
37380;DHT22;23252;-33.992;18.480;2022-12-07T04:58:15;18.00;99.90
37380;DHT22;23252;-33.992;18.480;2022-12-07T05:00:41;18.10;99.90
37380;DHT22;23252;-33.992;18.480;2022-12-07T05:03:08;18.10;99.90
37380;DHT22;23252;-33.992;18.480;2022-12-07T05:05:34;18.10;99.90
37380;DHT22;23252;-33.992;18.480;2022-12-07T05:08:01;18.10;99.90
37380;DHT22;23252;-33.992;18.480;2022-12-07T05:10:27;18.20;99.90
37380;DHT22;23252;-33.992;18.480;2022-12-07T05:12:54;18.20;99.90
37380;DHT22;23252;-33.992;18.480;2022-12-07T05:15:20;18.30;99.90
37380;DHT22;23252;-33.992;18.480;2022-12-07T05:17:47;18.40;99.90
37380;DHT22;23252;-33.992;18.480;2022-12-07T05:20:13;18.50;99.90
37380;DHT22;23252;-33.992;18.480;2022-12-07T05:22:40;18.60;99.90
37380;DHT22;23252;-33.992;18.480;2022-12-07T05:25:07;18.60;99.90
37380;DHT22;23252;-33.992;18.480;2022-12-07T05:27:36;18.60;99.90
37380;DHT22;23252;-33.992;18.480;2022-12-07T05:30:04;18.70;99.90
37380;DHT22;23252;-33.992;18.480;2022-12-07T05:32:31;18.80;99.90
37380;DHT22;23252;-33.992;18.480;2022-12-07T05:34:58;18.80;99.90
37380;DHT22;23252;-33.992;18.480;2022-12-07T05:37:24;18.90;99.90
37380;DHT22;23252;-33.992;18.480;2022-12-07T05:39:51;19.00;99.90
37380;DHT22;23252;-33.992;18.480;2022-12-07T05:42:17;19.00;99.90
37380;DHT22;23252;-33.992;18.480;2022-12-07T05:44:45;19.10;99.90
37380;DHT22;23252;-33.992;18.480;2022-12-07T05:47:13;19.10;99.90
37380;DHT22;23252;-33.992;18.480;2022-12-07T05:49:40;19.20;99.90
37380;DHT22;23252;-33.992;18.480;2022-12-07T05:52:07;19.20;99.90
37380;DHT22;23252;-33.992;18.480;2022-12-07T05:54:33;19.30;99.90
37380;DHT22;23252;-33.992;18.480;2022-12-07T05:57:00;19.40;99.90
37380;DHT22;23252;-33.992;18.480;2022-12-07T05:59:26;19.50;99.90
37380;DHT22;23252;-33.992;18.480;2022-12-07T06:02:01;19.60;99.90
37380;DHT22;23252;-33.992;18.480;2022-12-07T06:04:31;19.50;99.90
37380;DHT22;23252;-33.992;18.480;2022-12-07T06:06:58;19.60;99.90
37380;DHT22;23252;-33.992;18.480;2022-12-07T06:09:27;19.70;99.90
37380;DHT22;23252;-33.992;18.480;2022-12-07T06:11:55;19.80;99.90
37380;DHT22;23252;-33.992;18.480;2022-12-07T06:14:39;19.80;99.90
37380;DHT22;23252;-33.992;18.480;2022-12-07T06:17:09;19.80;99.90
37380;DHT22;23252;-33.992;18.480;2022-12-07T06:19:36;19.80;99.90
37380;DHT22;23252;-33.992;18.480;2022-12-07T06:22:03;19.80;99.90
37380;DHT22;23252;-33.992;18.480;2022-12-07T06:24:31;19.80;99.90
37380;DHT22;23252;-33.992;18.480;2022-12-07T06:27:01;19.90;99.90
37380;DHT22;23252;-33.992;18.480;2022-12-07T06:29:28;19.90;99.90
37380;DHT22;23252;-33.992;18.480;2022-12-07T06:31:54;20.00;99.90
37380;DHT22;23252;-33.992;18.480;2022-12-07T06:34:22;20.10;99.90
37380;DHT22;23252;-33.992;18.480;2022-12-07T06:36:49;20.10;99.90
37380;DHT22;23252;-33.992;18.480;2022-12-07T06:39:25;20.20;99.90
37380;DHT22;23252;-33.992;18.480;2022-12-07T06:41:52;20.20;99.90
37380;DHT22;23252;-33.992;18.480;2022-12-07T06:44:19;20.10;99.90
37380;DHT22;23252;-33.992;18.480;2022-12-07T06:46:46;20.20;99.90
37380;DHT22;23252;-33.992;18.480;2022-12-07T06:49:13;20.20;99.90
37380;DHT22;23252;-33.992;18.480;2022-12-07T06:51:39;20.30;99.90
37380;DHT22;23252;-33.992;18.480;2022-12-07T06:54:13;20.40;99.90
37380;DHT22;23252;-33.992;18.480;2022-12-07T06:56:40;20.50;99.90
37380;DHT22;23252;-33.992;18.480;2022-12-07T06:59:07;20.50;99.90
37380;DHT22;23252;-33.992;18.480;2022-12-07T07:01:35;20.60;99.90
37380;DHT22;23252;-33.992;18.480;2022-12-07T07:04:02;20.60;99.90
37380;DHT22;23252;-33.992;18.480;2022-12-07T07:06:28;20.60;99.90
37380;DHT22;23252;-33.992;18.480;2022-12-07T07:08:55;20.60;99.90
37380;DHT22;23252;-33.992;18.480;2022-12-07T07:11:21;20.60;99.90
37380;DHT22;23252;-33.992;18.480;2022-12-07T07:13:48;20.70;99.90
37380;DHT22;23252;-33.992;18.480;2022-12-07T07:16:14;20.70;99.90
37380;DHT22;23252;-33.992;18.480;2022-12-07T07:18:41;20.80;99.90
37380;DHT22;23252;-33.992;18.480;2022-12-07T07:21:07;20.90;99.90
37380;DHT22;23252;-33.992;18.480;2022-12-07T07:23:34;21.00;99.90
37380;DHT22;23252;-33.992;18.480;2022-12-07T07:26:01;21.00;99.90
37380;DHT22;23252;-33.992;18.480;2022-12-07T07:28:27;21.10;99.90
37380;DHT22;23252;-33.992;18.480;2022-12-07T07:30:54;21.10;99.90
37380;DHT22;23252;-33.992;18.480;2022-12-07T07:33:20;21.10;99.90
37380;DHT22;23252;-33.992;18.480;2022-12-07T07:35:47;21.10;99.90
37380;DHT22;23252;-33.992;18.480;2022-12-07T07:38:13;21.20;99.90
37380;DHT22;23252;-33.992;18.480;2022-12-07T07:40:40;21.20;99.90
37380;DHT22;23252;-33.992;18.480;2022-12-07T07:43:06;21.20;99.90
37380;DHT22;23252;-33.992;18.480;2022-12-07T07:45:33;21.20;99.90
37380;DHT22;23252;-33.992;18.480;2022-12-07T07:48:00;21.20;99.90
37380;DHT22;23252;-33.992;18.480;2022-12-07T07:50:26;21.30;99.90
37380;DHT22;23252;-33.992;18.480;2022-12-07T07:52:53;21.30;99.90
37380;DHT22;23252;-33.992;18.480;2022-12-07T07:55:19;21.30;99.90
37380;DHT22;23252;-33.992;18.480;2022-12-07T07:57:46;21.30;99.90
37380;DHT22;23252;-33.992;18.480;2022-12-07T08:00:14;21.30;99.90
37380;DHT22;23252;-33.992;18.480;2022-12-07T08:02:42;21.30;99.90
37380;DHT22;23252;-33.992;18.480;2022-12-07T08:05:13;21.30;99.90
37380;DHT22;23252;-33.992;18.480;2022-12-07T08:07:40;21.40;99.90
37380;DHT22;23252;-33.992;18.480;2022-12-07T08:10:09;21.40;99.90
37380;DHT22;23252;-33.992;18.480;2022-12-07T08:12:38;21.50;99.90
37380;DHT22;23252;-33.992;18.480;2022-12-07T08:15:26;21.50;99.90
37380;DHT22;23252;-33.992;18.480;2022-12-07T08:17:52;21.50;99.90
37380;DHT22;23252;-33.992;18.480;2022-12-07T08:20:19;21.50;99.90
37380;DHT22;23252;-33.992;18.480;2022-12-07T08:22:46;21.50;99.90
37380;DHT22;23252;-33.992;18.480;2022-12-07T08:25:12;21.50;99.90
37380;DHT22;23252;-33.992;18.480;2022-12-07T08:27:39;21.50;99.90
37380;DHT22;23252;-33.992;18.480;2022-12-07T08:30:06;21.50;99.90
37380;DHT22;23252;-33.992;18.480;2022-12-07T08:32:35;21.60;99.90
37380;DHT22;23252;-33.992;18.480;2022-12-07T08:35:01;21.70;99.90
37380;DHT22;23252;-33.992;18.480;2022-12-07T08:37:28;21.70;99.90
37380;DHT22;23252;-33.992;18.480;2022-12-07T08:39:55;21.60;99.90
37380;DHT22;23252;-33.992;18.480;2022-12-07T08:42:21;21.70;99.90
37380;DHT22;23252;-33.992;18.480;2022-12-07T08:44:53;21.70;99.90
37380;DHT22;23252;-33.992;18.480;2022-12-07T08:47:20;21.80;99.90
37380;DHT22;23252;-33.992;18.480;2022-12-07T08:49:49;21.80;99.90
37380;DHT22;23252;-33.992;18.480;2022-12-07T08:52:17;21.80;99.90
37380;DHT22;23252;-33.992;18.480;2022-12-07T08:54:45;21.80;99.90
37380;DHT22;23252;-33.992;18.480;2022-12-07T08:57:11;21.90;99.90
37380;DHT22;23252;-33.992;18.480;2022-12-07T08:59:38;22.00;99.90
37380;DHT22;23252;-33.992;18.480;2022-12-07T09:02:05;22.10;99.90
37380;DHT22;23252;-33.992;18.480;2022-12-07T09:04:32;22.20;99.90
37380;DHT22;23252;-33.992;18.480;2022-12-07T09:06:59;22.30;99.90
37380;DHT22;23252;-33.992;18.480;2022-12-07T09:09:25;22.40;99.90
37380;DHT22;23252;-33.992;18.480;2022-12-07T09:11:52;22.50;99.90
37380;DHT22;23252;-33.992;18.480;2022-12-07T09:14:18;22.60;99.90
37380;DHT22;23252;-33.992;18.480;2022-12-07T09:16:45;22.70;99.90
37380;DHT22;23252;-33.992;18.480;2022-12-07T09:19:12;22.80;99.90
37380;DHT22;23252;-33.992;18.480;2022-12-07T09:21:38;22.90;99.90
37380;DHT22;23252;-33.992;18.480;2022-12-07T09:24:05;22.90;99.90
37380;DHT22;23252;-33.992;18.480;2022-12-07T09:26:31;23.00;99.90
37380;DHT22;23252;-33.992;18.480;2022-12-07T09:28:58;23.10;99.90
37380;DHT22;23252;-33.992;18.480;2022-12-07T09:31:27;23.00;99.90
37380;DHT22;23252;-33.992;18.480;2022-12-07T09:34:00;23.10;99.90
37380;DHT22;23252;-33.992;18.480;2022-12-07T09:36:28;23.10;99.90
37380;DHT22;23252;-33.992;18.480;2022-12-07T09:38:55;23.20;99.90
37380;DHT22;23252;-33.992;18.480;2022-12-07T09:41:23;23.20;99.90
37380;DHT22;23252;-33.992;18.480;2022-12-07T09:43:51;23.30;99.90
37380;DHT22;23252;-33.992;18.480;2022-12-07T09:46:19;23.30;99.90
37380;DHT22;23252;-33.992;18.480;2022-12-07T09:48:47;23.40;99.90
37380;DHT22;23252;-33.992;18.480;2022-12-07T09:51:18;23.50;99.90
37380;DHT22;23252;-33.992;18.480;2022-12-07T09:53:45;23.60;99.90
37380;DHT22;23252;-33.992;18.480;2022-12-07T09:56:17;23.80;99.90
37380;DHT22;23252;-33.992;18.480;2022-12-07T09:58:45;23.90;99.90
37380;DHT22;23252;-33.992;18.480;2022-12-07T10:01:16;24.00;99.90
37380;DHT22;23252;-33.992;18.480;2022-12-07T10:03:51;24.10;99.90
37380;DHT22;23252;-33.992;18.480;2022-12-07T10:06:18;24.20;99.90
37380;DHT22;23252;-33.992;18.480;2022-12-07T10:08:45;24.40;99.90
37380;DHT22;23252;-33.992;18.480;2022-12-07T10:11:12;24.60;99.90
37380;DHT22;23252;-33.992;18.480;2022-12-07T10:13:45;24.80;99.90
37380;DHT22;23252;-33.992;18.480;2022-12-07T10:18:54;24.80;99.90
37380;DHT22;23252;-33.992;18.480;2022-12-07T10:21:26;24.90;99.90
37380;DHT22;23252;-33.992;18.480;2022-12-07T10:24:04;25.00;99.90
37380;DHT22;23252;-33.992;18.480;2022-12-07T10:29:24;25.20;99.90
37380;DHT22;23252;-33.992;18.480;2022-12-07T10:32:06;25.40;99.90
37380;DHT22;23252;-33.992;18.480;2022-12-07T10:34:50;25.50;99.90
37380;DHT22;23252;-33.992;18.480;2022-12-07T10:37:19;25.50;99.90
37380;DHT22;23252;-33.992;18.480;2022-12-07T10:39:54;25.30;99.90
37380;DHT22;23252;-33.992;18.480;2022-12-07T10:42:32;25.30;99.90
37380;DHT22;23252;-33.992;18.480;2022-12-07T10:45:15;25.30;99.90
37380;DHT22;23252;-33.992;18.480;2022-12-07T10:55:58;26.20;99.90
37380;DHT22;23252;-33.992;18.480;2022-12-07T10:58:45;26.30;99.90
37380;DHT22;23252;-33.992;18.480;2022-12-07T11:01:23;26.40;99.90
37380;DHT22;23252;-33.992;18.480;2022-12-07T11:04:15;26.60;99.90
37380;DHT22;23252;-33.992;18.480;2022-12-07T11:12:47;26.50;99.90
37380;DHT22;23252;-33.992;18.480;2022-12-07T11:18:06;26.50;99.90
37380;DHT22;23252;-33.992;18.480;2022-12-07T11:21:35;26.80;99.90
37380;DHT22;23252;-33.992;18.480;2022-12-07T11:26:31;27.00;99.90
37380;DHT22;23252;-33.992;18.480;2022-12-07T11:29:18;27.10;99.90
37380;DHT22;23252;-33.992;18.480;2022-12-07T11:32:32;27.40;99.90
37380;DHT22;23252;-33.992;18.480;2022-12-07T11:36:07;27.80;99.90
37380;DHT22;23252;-33.992;18.480;2022-12-07T11:38:33;28.10;99.90
37380;DHT22;23252;-33.992;18.480;2022-12-07T11:41:04;28.30;99.90
37380;DHT22;23252;-33.992;18.480;2022-12-07T11:43:53;28.30;99.90
37380;DHT22;23252;-33.992;18.480;2022-12-07T11:46:20;28.50;99.90
37380;DHT22;23252;-33.992;18.480;2022-12-07T11:51:52;29.00;99.90
37380;DHT22;23252;-33.992;18.480;2022-12-07T11:54:30;29.00;99.90
37380;DHT22;23252;-33.992;18.480;2022-12-07T11:57:04;29.00;99.90
37380;DHT22;23252;-33.992;18.480;2022-12-07T11:59:43;28.80;99.90
37380;DHT22;23252;-33.992;18.480;2022-12-07T12:02:21;29.00;99.90
37380;DHT22;23252;-33.992;18.480;2022-12-07T12:04:58;28.70;99.90
37380;DHT22;23252;-33.992;18.480;2022-12-07T12:07:28;28.00;99.90
37380;DHT22;23252;-33.992;18.480;2022-12-07T12:10:05;27.70;99.90
37380;DHT22;23252;-33.992;18.480;2022-12-07T12:13:02;27.90;99.90
37380;DHT22;23252;-33.992;18.480;2022-12-07T12:18:51;29.50;99.90
37380;DHT22;23252;-33.992;18.480;2022-12-07T12:21:30;30.60;99.90
37380;DHT22;23252;-33.992;18.480;2022-12-07T12:26:33;31.40;99.90
37380;DHT22;23252;-33.992;18.480;2022-12-07T12:29:24;31.50;99.90
37380;DHT22;23252;-33.992;18.480;2022-12-07T12:32:06;30.80;99.90
37380;DHT22;23252;-33.992;18.480;2022-12-07T12:34:58;31.00;99.90
37380;DHT22;23252;-33.992;18.480;2022-12-07T12:42:49;31.00;99.90
37380;DHT22;23252;-33.992;18.480;2022-12-07T12:45:29;30.30;99.90
37380;DHT22;23252;-33.992;18.480;2022-12-07T12:48:02;30.00;99.90
37380;DHT22;23252;-33.992;18.480;2022-12-07T12:50:33;29.40;99.90
37380;DHT22;23252;-33.992;18.480;2022-12-07T12:53:24;29.20;99.90
37380;DHT22;23252;-33.992;18.480;2022-12-07T12:58:39;29.40;99.90
37380;DHT22;23252;-33.992;18.480;2022-12-07T13:04:21;29.90;99.90
37380;DHT22;23252;-33.992;18.480;2022-12-07T13:06:49;29.50;99.90
37380;DHT22;23252;-33.992;18.480;2022-12-07T13:11:49;28.90;99.90
37380;DHT22;23252;-33.992;18.480;2022-12-07T13:20:05;29.00;99.90
37380;DHT22;23252;-33.992;18.480;2022-12-07T13:27:41;30.00;99.90
37380;DHT22;23252;-33.992;18.480;2022-12-07T13:30:20;29.80;99.90
37380;DHT22;23252;-33.992;18.480;2022-12-07T13:32:55;29.80;99.90
37380;DHT22;23252;-33.992;18.480;2022-12-07T13:35:37;29.40;99.90
37380;DHT22;23252;-33.992;18.480;2022-12-07T13:38:16;29.30;99.90
37380;DHT22;23252;-33.992;18.480;2022-12-07T13:41:13;29.90;99.90
37380;DHT22;23252;-33.992;18.480;2022-12-07T13:43:49;29.80;99.90
37380;DHT22;23252;-33.992;18.480;2022-12-07T13:46:19;29.70;99.90
37380;DHT22;23252;-33.992;18.480;2022-12-07T13:48:49;29.20;99.90
37380;DHT22;23252;-33.992;18.480;2022-12-07T13:51:25;29.70;99.90
37380;DHT22;23252;-33.992;18.480;2022-12-07T13:54:16;29.90;99.90
37380;DHT22;23252;-33.992;18.480;2022-12-07T13:56:42;29.40;99.90
37380;DHT22;23252;-33.992;18.480;2022-12-07T13:59:18;29.40;99.90
37380;DHT22;23252;-33.992;18.480;2022-12-07T14:01:46;28.80;99.90
37380;DHT22;23252;-33.992;18.480;2022-12-07T14:04:31;28.60;99.90
37380;DHT22;23252;-33.992;18.480;2022-12-07T14:06:58;28.60;99.90
37380;DHT22;23252;-33.992;18.480;2022-12-07T14:09:26;29.20;99.90
37380;DHT22;23252;-33.992;18.480;2022-12-07T14:11:57;29.50;99.90
37380;DHT22;23252;-33.992;18.480;2022-12-07T14:14:30;28.50;99.90
37380;DHT22;23252;-33.992;18.480;2022-12-07T14:17:21;28.10;99.90
37380;DHT22;23252;-33.992;18.480;2022-12-07T14:19:58;27.90;99.90
37380;DHT22;23252;-33.992;18.480;2022-12-07T14:27:38;29.60;99.90
37380;DHT22;23252;-33.992;18.480;2022-12-07T14:30:06;30.50;99.90
37380;DHT22;23252;-33.992;18.480;2022-12-07T14:32:34;29.40;99.90
37380;DHT22;23252;-33.992;18.480;2022-12-07T14:35:10;28.60;99.90
37380;DHT22;23252;-33.992;18.480;2022-12-07T14:37:38;29.10;99.90
37380;DHT22;23252;-33.992;18.480;2022-12-07T14:40:05;28.90;99.90
37380;DHT22;23252;-33.992;18.480;2022-12-07T14:42:33;28.70;99.90
37380;DHT22;23252;-33.992;18.480;2022-12-07T14:45:00;28.50;99.90
37380;DHT22;23252;-33.992;18.480;2022-12-07T14:47:27;28.40;99.90
37380;DHT22;23252;-33.992;18.480;2022-12-07T14:49:53;28.30;99.90
37380;DHT22;23252;-33.992;18.480;2022-12-07T14:52:23;28.30;99.90
37380;DHT22;23252;-33.992;18.480;2022-12-07T14:54:51;28.10;99.90
37380;DHT22;23252;-33.992;18.480;2022-12-07T14:57:18;27.70;99.90
37380;DHT22;23252;-33.992;18.480;2022-12-07T14:59:44;27.50;99.90
37380;DHT22;23252;-33.992;18.480;2022-12-07T15:02:13;28.10;99.90
37380;DHT22;23252;-33.992;18.480;2022-12-07T15:04:40;28.30;99.90
37380;DHT22;23252;-33.992;18.480;2022-12-07T15:07:20;28.20;99.90
37380;DHT22;23252;-33.992;18.480;2022-12-07T15:09:48;27.80;99.90
37380;DHT22;23252;-33.992;18.480;2022-12-07T15:12:14;27.80;99.90
37380;DHT22;23252;-33.992;18.480;2022-12-07T15:14:41;27.30;99.90
37380;DHT22;23252;-33.992;18.480;2022-12-07T15:17:11;27.10;99.90
37380;DHT22;23252;-33.992;18.480;2022-12-07T15:19:38;26.90;99.90
37380;DHT22;23252;-33.992;18.480;2022-12-07T15:22:05;27.00;99.90
37380;DHT22;23252;-33.992;18.480;2022-12-07T15:24:31;27.60;99.90
37380;DHT22;23252;-33.992;18.480;2022-12-07T15:26:59;27.30;99.90
37380;DHT22;23252;-33.992;18.480;2022-12-07T15:29:25;27.00;99.90
37380;DHT22;23252;-33.992;18.480;2022-12-07T15:31:52;27.20;99.90
37380;DHT22;23252;-33.992;18.480;2022-12-07T15:34:19;27.90;99.90
37380;DHT22;23252;-33.992;18.480;2022-12-07T15:36:45;27.90;99.90
37380;DHT22;23252;-33.992;18.480;2022-12-07T15:39:12;27.20;99.90
37380;DHT22;23252;-33.992;18.480;2022-12-07T15:41:39;26.90;99.90
37380;DHT22;23252;-33.992;18.480;2022-12-07T15:44:05;27.60;99.90
37380;DHT22;23252;-33.992;18.480;2022-12-07T15:46:50;27.90;99.90
37380;DHT22;23252;-33.992;18.480;2022-12-07T15:49:18;27.80;99.90
37380;DHT22;23252;-33.992;18.480;2022-12-07T15:51:45;27.60;99.90
37380;DHT22;23252;-33.992;18.480;2022-12-07T15:54:21;27.40;99.90
37380;DHT22;23252;-33.992;18.480;2022-12-07T15:56:47;27.80;99.90
37380;DHT22;23252;-33.992;18.480;2022-12-07T15:59:14;27.40;99.90
37380;DHT22;23252;-33.992;18.480;2022-12-07T16:01:41;27.30;99.90
37380;DHT22;23252;-33.992;18.480;2022-12-07T16:04:07;27.50;99.90
37380;DHT22;23252;-33.992;18.480;2022-12-07T16:06:34;27.80;99.90
37380;DHT22;23252;-33.992;18.480;2022-12-07T16:09:00;28.00;99.90
37380;DHT22;23252;-33.992;18.480;2022-12-07T16:11:27;27.80;99.90
37380;DHT22;23252;-33.992;18.480;2022-12-07T16:13:53;27.80;99.90
37380;DHT22;23252;-33.992;18.480;2022-12-07T16:16:20;27.90;99.90
37380;DHT22;23252;-33.992;18.480;2022-12-07T16:18:49;27.90;99.90
37380;DHT22;23252;-33.992;18.480;2022-12-07T16:21:17;27.40;99.90
37380;DHT22;23252;-33.992;18.480;2022-12-07T16:23:49;27.40;99.90
37380;DHT22;23252;-33.992;18.480;2022-12-07T16:26:17;27.00;99.90
37380;DHT22;23252;-33.992;18.480;2022-12-07T16:28:47;26.50;99.90
37380;DHT22;23252;-33.992;18.480;2022-12-07T16:31:19;26.10;99.90
37380;DHT22;23252;-33.992;18.480;2022-12-07T16:33:46;26.00;99.90
37380;DHT22;23252;-33.992;18.480;2022-12-07T16:36:14;25.40;99.90
37380;DHT22;23252;-33.992;18.480;2022-12-07T16:38:42;25.10;99.90
37380;DHT22;23252;-33.992;18.480;2022-12-07T16:41:09;24.90;99.90
37380;DHT22;23252;-33.992;18.480;2022-12-07T16:43:36;24.60;99.90
37380;DHT22;23252;-33.992;18.480;2022-12-07T16:46:03;24.40;99.90
37380;DHT22;23252;-33.992;18.480;2022-12-07T16:48:30;24.00;99.90
37380;DHT22;23252;-33.992;18.480;2022-12-07T16:50:57;23.80;99.90
37380;DHT22;23252;-33.992;18.480;2022-12-07T16:53:28;23.60;99.90
37380;DHT22;23252;-33.992;18.480;2022-12-07T16:55:55;23.80;99.90
37380;DHT22;23252;-33.992;18.480;2022-12-07T16:58:21;23.80;99.90
37380;DHT22;23252;-33.992;18.480;2022-12-07T17:00:48;23.70;99.90